createdAt,value
2018-12-12T00:00:41.367Z,6.27
2018-12-12T00:03:09.350Z,6.07
2018-12-12T00:05:38.859Z,5.23
2018-12-12T00:08:06.299Z,6.00
2018-12-12T00:10:35.885Z,5.90
2018-12-12T00:13:03.856Z,6.62
2018-12-12T00:15:32.257Z,8.30
2018-12-12T00:18:00.471Z,8.63
2018-12-12T00:20:29.119Z,6.40
2018-12-12T00:22:58.822Z,10.10
2018-12-12T00:25:26.840Z,8.70
2018-12-12T00:27:56.091Z,6.50
2018-12-12T00:30:25.193Z,6.43
2018-12-12T00:32:54.841Z,7.43
2018-12-12T00:35:24.482Z,6.87
2018-12-12T00:37:52.219Z,7.57
2018-12-12T00:40:20.230Z,8.77
2018-12-12T00:42:49.954Z,7.17
2018-12-12T00:45:19.573Z,7.07
2018-12-12T00:47:49.726Z,12.47
2018-12-12T00:50:19.425Z,6.33
2018-12-12T00:52:48.108Z,9.35
2018-12-12T00:55:16.591Z,6.57
2018-12-12T00:57:46.179Z,7.10
2018-12-12T01:00:14.730Z,7.20
2018-12-12T01:02:44.275Z,7.20
2018-12-12T01:05:13.730Z,7.30
2018-12-12T01:07:41.779Z,9.50
2018-12-12T01:10:09.807Z,8.90
2018-12-12T01:12:39.421Z,8.87
2018-12-12T01:15:07.473Z,11.03
2018-12-12T01:17:35.856Z,10.37
2018-12-12T01:20:03.898Z,8.97
2018-12-12T01:22:31.937Z,6.53
2018-12-12T01:25:01.551Z,6.23
2018-12-12T01:27:31.108Z,6.90
2018-12-12T01:30:00.620Z,7.10
2018-12-12T01:32:29.166Z,6.23
2018-12-12T01:34:56.915Z,6.20
2018-12-12T01:37:26.451Z,5.93
2018-12-12T01:39:54.594Z,6.87
2018-12-12T01:42:22.810Z,4.93
2018-12-12T01:44:52.316Z,4.57
2018-12-12T01:47:22.083Z,5.90
2018-12-12T01:49:50.121Z,6.17
2018-12-12T01:52:17.868Z,6.40
2018-12-12T01:54:46.276Z,5.43
2018-12-12T01:57:14.051Z,5.00
2018-12-12T01:59:42.083Z,6.67
2018-12-12T02:02:10.186Z,6.20
2018-12-12T02:04:39.434Z,7.73
2018-12-12T02:07:07.118Z,5.70
2018-12-12T02:09:35.604Z,5.20
2018-12-12T02:12:03.616Z,6.00
2018-12-12T02:14:32.885Z,5.83
2018-12-12T02:17:00.901Z,7.30
2018-12-12T02:19:28.900Z,6.90
2018-12-12T02:21:58.402Z,6.93
2018-12-12T02:24:26.962Z,2.93
2018-12-12T02:26:54.777Z,2.77
2018-12-12T02:29:22.818Z,2.83
2018-12-12T02:31:50.843Z,3.73
2018-12-12T02:34:18.813Z,3.30
2018-12-12T02:36:46.818Z,2.83
2018-12-12T02:39:14.861Z,2.77
2018-12-12T02:41:42.870Z,2.77
2018-12-12T02:44:11.311Z,3.23
2018-12-12T02:46:41.126Z,3.63
2018-12-12T02:49:09.139Z,4.17
2018-12-12T02:51:39.915Z,4.93
2018-12-12T02:54:10.283Z,3.60
2018-12-12T02:56:38.186Z,4.60
2018-12-12T02:59:06.187Z,3.73
2018-12-12T03:01:34.227Z,3.23
2018-12-12T03:04:03.830Z,3.77
2018-12-12T03:06:33.685Z,5.50
2018-12-12T03:09:01.931Z,3.83
2018-12-12T03:11:31.549Z,2.67
2018-12-12T03:14:00.120Z,2.67
2018-12-12T03:16:28.102Z,2.73
2018-12-12T03:18:56.181Z,2.60
2018-12-12T03:21:25.551Z,3.20
2018-12-12T03:23:55.256Z,2.60
2018-12-12T03:26:25.381Z,2.70
2018-12-12T03:28:53.478Z,2.67
2018-12-12T03:31:23.139Z,2.50
2018-12-12T03:33:53.133Z,2.37
2018-12-12T03:36:22.654Z,2.30
2018-12-12T03:38:51.223Z,2.47
2018-12-12T03:41:19.272Z,2.80
2018-12-12T03:43:47.283Z,2.40
2018-12-12T03:46:15.447Z,3.27
2018-12-12T03:48:44.716Z,2.53
2018-12-12T03:51:14.410Z,2.37
2018-12-12T03:53:43.055Z,2.30
2018-12-12T03:56:11.121Z,2.47
2018-12-12T03:58:40.629Z,3.57
2018-12-12T04:01:08.661Z,3.67
2018-12-12T04:03:36.411Z,4.47
2018-12-12T04:06:06.095Z,7.83
2018-12-12T04:08:34.149Z,12.30
2018-12-12T04:11:03.553Z,15.27
2018-12-12T04:13:33.282Z,8.17
2018-12-12T04:16:01.325Z,4.30
2018-12-12T04:18:30.933Z,4.20
2018-12-12T04:20:58.955Z,4.20
2018-12-12T04:23:29.030Z,6.17
2018-12-12T04:25:57.248Z,3.83
2018-12-12T04:28:24.978Z,3.70
2018-12-12T04:30:53.159Z,4.10
2018-12-12T04:33:20.850Z,4.00
2018-12-12T04:35:49.016Z,3.70
2018-12-12T04:38:17.010Z,3.73
2018-12-12T04:40:45.605Z,3.17
2018-12-12T04:43:14.310Z,3.10
2018-12-12T04:45:42.877Z,3.00
2018-12-12T04:48:12.150Z,4.30
2018-12-12T04:50:40.149Z,3.43
2018-12-12T04:53:09.696Z,3.30
2018-12-12T04:55:39.172Z,3.10
2018-12-12T04:58:07.160Z,2.93
2018-12-12T05:00:35.205Z,3.97
2018-12-12T05:03:04.977Z,4.03
2018-12-12T05:05:34.662Z,3.97
2018-12-12T05:08:03.816Z,3.73
2018-12-12T05:10:31.572Z,3.73
2018-12-12T05:12:59.596Z,5.50
2018-12-12T05:15:27.765Z,5.03
2018-12-12T05:17:56.348Z,5.20
2018-12-12T05:20:24.037Z,5.13
2018-12-12T05:22:53.646Z,3.90
2018-12-12T05:25:24.098Z,2.90
2018-12-12T05:27:52.119Z,2.40
2018-12-12T05:30:21.768Z,3.70
2018-12-12T05:32:49.766Z,3.73
2018-12-12T05:35:19.318Z,3.87
2018-12-12T05:37:51.040Z,3.57
2018-12-12T05:40:18.390Z,2.80
2018-12-12T05:42:46.360Z,3.17
2018-12-12T05:45:15.153Z,3.40
2018-12-12T05:47:43.176Z,3.80
2018-12-12T05:50:12.983Z,3.37
2018-12-12T05:52:40.990Z,3.30
2018-12-12T05:55:09.031Z,3.50
2018-12-12T05:57:37.578Z,3.40
2018-12-12T06:00:05.991Z,3.57
2018-12-12T06:02:34.003Z,3.33
2018-12-12T06:05:01.998Z,3.57
2018-12-12T06:07:30.490Z,2.90
2018-12-12T06:09:58.192Z,3.00
2018-12-12T06:12:26.175Z,3.50
2018-12-12T06:14:54.694Z,2.80
2018-12-12T06:17:23.345Z,3.07
2018-12-12T06:19:51.352Z,3.17
2018-12-12T06:22:19.386Z,2.93
2018-12-12T06:24:47.115Z,2.90
2018-12-12T06:27:15.684Z,3.43
2018-12-12T06:29:44.172Z,2.93
2018-12-12T06:32:12.211Z,2.80
2018-12-12T06:34:41.631Z,3.23
2018-12-12T06:37:11.148Z,3.57
2018-12-12T06:39:38.893Z,3.67
2018-12-12T06:42:06.878Z,4.70
2018-12-12T06:44:35.433Z,4.23
2018-12-12T06:47:03.613Z,5.27
2018-12-12T06:49:31.597Z,5.20
2018-12-12T06:51:59.676Z,4.43
2018-12-12T06:54:27.646Z,5.10
2018-12-12T06:56:55.723Z,4.73
2018-12-12T06:59:24.340Z,4.80
2018-12-12T07:01:53.887Z,4.63
2018-12-12T07:04:23.425Z,4.80
2018-12-12T07:06:53.147Z,6.93
2018-12-12T07:09:22.289Z,7.77
2018-12-12T07:11:51.912Z,6.83
2018-12-12T07:14:19.918Z,6.80
2018-12-12T07:16:47.931Z,6.93
2018-12-12T07:19:15.993Z,7.57
2018-12-12T07:21:44.477Z,6.70
2018-12-12T07:24:12.495Z,7.10
2018-12-12T07:26:42.100Z,11.43
2018-12-12T07:29:10.115Z,8.43
2018-12-12T07:31:40.290Z,7.23
2018-12-12T07:34:08.451Z,5.60
2018-12-12T07:36:38.027Z,8.50
2018-12-12T07:39:08.453Z,13.05
2018-12-12T07:41:37.878Z,10.10
2018-12-12T07:44:05.933Z,9.70
2018-12-12T07:46:33.924Z,10.47
2018-12-12T07:49:03.539Z,10.80
2018-12-12T07:51:31.715Z,10.00
2018-12-12T07:54:01.275Z,9.60
2018-12-12T07:56:30.784Z,8.90
2018-12-12T07:59:01.249Z,8.70
2018-12-12T08:01:29.875Z,8.77
2018-12-12T08:03:59.441Z,9.33
2018-12-12T08:06:29.170Z,9.50
2018-12-12T08:08:57.145Z,10.27
2018-12-12T08:11:26.680Z,10.27
2018-12-12T08:13:54.423Z,10.03
2018-12-12T08:16:22.216Z,9.90
2018-12-12T08:18:50.220Z,9.40
2018-12-12T08:21:18.258Z,10.10
2018-12-12T08:23:46.268Z,9.47
2018-12-12T08:26:14.877Z,9.07
2018-12-12T08:28:43.477Z,10.25
2018-12-12T08:31:11.663Z,10.60
2018-12-12T08:33:40.312Z,10.10
2018-12-12T08:36:10.235Z,11.10
2018-12-12T08:38:39.892Z,11.20
2018-12-12T08:41:09.410Z,12.47
2018-12-12T08:43:39.214Z,11.33
2018-12-12T08:46:07.186Z,10.87
2018-12-12T08:48:35.179Z,10.00
2018-12-12T08:51:03.212Z,10.10
2018-12-12T08:53:31.123Z,9.73
2018-12-12T08:55:59.187Z,10.47
2018-12-12T08:58:27.727Z,10.43
2018-12-12T09:00:57.850Z,9.73
2018-12-12T09:03:25.554Z,10.57
2018-12-12T09:05:53.874Z,9.47
2018-12-12T09:08:23.381Z,10.33
2018-12-12T09:10:51.957Z,11.70
2018-12-12T09:13:21.629Z,10.17
2018-12-12T09:15:51.218Z,10.27
2018-12-12T09:18:20.911Z,10.33
2018-12-12T09:20:48.986Z,10.40
2018-12-12T09:23:18.496Z,10.43
2018-12-12T09:25:48.101Z,9.13
2018-12-12T09:28:16.257Z,9.47
2018-12-12T09:30:44.025Z,8.80
2018-12-12T09:33:11.816Z,8.60
2018-12-12T09:35:41.551Z,10.20
2018-12-12T09:38:09.545Z,9.40
2018-12-12T09:40:37.574Z,9.00
2018-12-12T09:43:07.793Z,8.70
2018-12-12T09:45:37.178Z,8.77
2018-12-12T09:48:05.210Z,9.37
2018-12-12T09:50:35.315Z,10.80
2018-12-12T09:53:04.958Z,11.93
2018-12-12T09:55:32.941Z,9.77
2018-12-12T09:58:03.115Z,10.00
2018-12-12T10:00:32.940Z,9.43
2018-12-12T10:03:00.942Z,10.87
2018-12-12T10:05:28.690Z,9.43
2018-12-12T10:07:56.709Z,8.80
2018-12-12T10:10:26.276Z,10.00
2018-12-12T10:12:54.634Z,7.93
2018-12-12T10:15:23.411Z,9.85
2018-12-12T10:17:51.115Z,8.85
2018-12-12T10:20:20.672Z,8.95
2018-12-12T10:22:49.258Z,8.85
2018-12-12T10:25:17.534Z,9.45
2018-12-12T10:27:46.108Z,9.60
2018-12-12T10:30:14.261Z,9.07
2018-12-12T10:32:43.836Z,9.00
2018-12-12T10:35:14.536Z,9.32
2018-12-12T10:37:41.894Z,10.73
2018-12-12T10:40:09.901Z,8.40
2018-12-12T10:42:38.066Z,9.70
2018-12-12T10:45:08.038Z,9.00
2018-12-12T10:47:36.093Z,8.25
2018-12-12T10:50:04.186Z,8.27
2018-12-12T10:52:31.909Z,8.82
2018-12-12T10:54:59.620Z,9.35
2018-12-12T10:57:28.917Z,8.70
2018-12-12T10:59:57.056Z,8.60
2018-12-12T11:02:34.205Z,9.07
2018-12-12T11:05:02.223Z,8.25
2018-12-12T11:07:32.200Z,8.40
2018-12-12T11:10:01.595Z,9.48
2018-12-12T11:12:29.611Z,9.40
2018-12-12T11:14:57.374Z,8.67
2018-12-12T11:17:25.948Z,9.65
2018-12-12T11:19:54.113Z,8.70
2018-12-12T11:22:21.978Z,8.68
2018-12-12T11:24:52.042Z,9.60
2018-12-12T11:27:20.070Z,10.25
2018-12-12T11:29:49.678Z,9.60
2018-12-12T11:32:19.949Z,9.75
2018-12-12T11:34:49.580Z,9.68
2018-12-12T11:37:18.185Z,9.95
2018-12-12T11:39:47.175Z,9.63
2018-12-12T11:42:16.679Z,8.38
2018-12-12T11:44:44.701Z,9.35
2018-12-12T11:47:13.099Z,8.50
2018-12-12T11:49:42.718Z,8.55
2018-12-12T11:52:12.446Z,8.18
2018-12-12T11:54:41.039Z,9.07
2018-12-12T11:57:10.300Z,8.80
2018-12-12T11:59:37.750Z,9.88
2018-12-12T12:02:06.433Z,7.07
2018-12-12T12:04:35.964Z,7.85
2018-12-12T12:07:04.619Z,8.70
2018-12-12T12:09:34.730Z,7.22
2018-12-12T12:12:02.771Z,7.90
2018-12-12T12:14:30.787Z,7.70
2018-12-12T12:17:00.703Z,6.57
2018-12-12T12:19:30.307Z,6.97
2018-12-12T12:21:59.517Z,5.18
2018-12-12T12:24:27.590Z,6.23
2018-12-12T12:26:55.566Z,6.80
2018-12-12T12:29:23.574Z,5.83
2018-12-12T12:31:51.625Z,5.85
2018-12-12T12:34:20.171Z,6.80
2018-12-12T12:36:48.174Z,6.80
2018-12-12T12:39:16.170Z,7.25
2018-12-12T12:41:43.895Z,7.80
2018-12-12T12:44:13.470Z,6.80
2018-12-12T12:46:41.501Z,6.30
2018-12-12T12:49:10.118Z,7.10
2018-12-12T12:51:38.419Z,6.90
2018-12-12T12:54:06.527Z,7.47
2018-12-12T12:56:36.217Z,5.80
2018-12-12T12:59:04.413Z,5.87
2018-12-12T13:01:34.258Z,7.00
2018-12-12T13:04:09.465Z,6.87
2018-12-12T13:06:31.558Z,7.03
2018-12-12T13:08:59.572Z,6.55
2018-12-12T13:11:29.333Z,6.07
2018-12-12T13:14:01.265Z,6.90
2018-12-12T13:16:28.700Z,6.12
2018-12-12T13:18:58.270Z,6.68
2018-12-12T13:21:26.459Z,5.80
2018-12-12T13:23:54.528Z,5.87
2018-12-12T13:26:24.185Z,6.28
2018-12-12T13:28:52.772Z,5.97
2018-12-12T13:31:22.604Z,5.77
2018-12-12T13:33:50.597Z,6.32
2018-12-12T13:36:18.301Z,6.20
2018-12-12T13:38:46.339Z,5.95
2018-12-12T13:41:14.403Z,6.32
2018-12-12T13:43:43.915Z,5.80
2018-12-12T13:46:11.971Z,5.18
2018-12-12T13:48:39.940Z,5.68
2018-12-12T13:51:07.656Z,5.43
2018-12-12T13:53:37.532Z,5.53
2018-12-12T13:56:05.595Z,5.28
2018-12-12T13:58:33.579Z,5.32
2018-12-12T14:01:03.191Z,4.57
2018-12-12T14:03:32.986Z,4.57
2018-12-12T14:06:00.980Z,4.87
2018-12-12T14:08:30.975Z,5.05
2018-12-12T14:10:59.254Z,5.10
2018-12-12T14:13:27.271Z,4.93
2018-12-12T14:15:55.381Z,5.40
2018-12-12T14:18:25.473Z,5.57
2018-12-12T14:20:54.913Z,5.90
2018-12-12T14:23:22.958Z,6.22
2018-12-12T14:25:50.741Z,6.75
2018-12-12T14:28:18.811Z,6.47
2018-12-12T14:30:48.346Z,5.87
2018-12-12T14:33:16.371Z,5.70
2018-12-12T14:35:44.376Z,6.18
2018-12-12T14:38:14.156Z,6.10
2018-12-12T14:40:43.997Z,6.82
2018-12-12T14:43:11.781Z,6.68
2018-12-12T14:45:39.805Z,6.55
2018-12-12T14:48:09.307Z,7.95
2018-12-12T14:50:37.998Z,7.43
2018-12-12T14:53:06.174Z,7.32
2018-12-12T14:55:34.361Z,7.93
2018-12-12T14:58:02.367Z,7.90
2018-12-12T15:00:30.386Z,8.05
2018-12-12T15:03:00.006Z,7.53
2018-12-12T15:05:28.530Z,7.78
2018-12-12T15:07:56.673Z,7.12
2018-12-12T15:10:24.673Z,7.70
2018-12-12T15:12:54.315Z,8.07
2018-12-12T15:15:23.878Z,7.43
2018-12-12T15:17:51.868Z,7.30
2018-12-12T15:20:21.522Z,7.12
2018-12-12T15:22:49.673Z,7.15
2018-12-12T15:25:17.960Z,6.45
2018-12-12T15:27:47.574Z,4.12
2018-12-12T15:30:15.611Z,6.45
2018-12-12T15:32:45.156Z,5.80
2018-12-12T15:35:13.147Z,5.62
2018-12-12T15:37:43.119Z,5.47
2018-12-12T15:40:11.213Z,5.93
2018-12-12T15:42:41.430Z,5.72
2018-12-12T15:45:09.184Z,6.12
2018-12-12T15:47:38.230Z,6.12
2018-12-12T15:50:06.283Z,6.50
2018-12-12T15:52:33.755Z,5.90
2018-12-12T15:55:01.828Z,6.55
2018-12-12T15:57:30.383Z,6.87
2018-12-12T15:59:58.363Z,6.85
2018-12-12T16:02:27.943Z,7.12
2018-12-12T16:04:57.563Z,7.10
2018-12-12T16:07:26.206Z,7.95
2018-12-12T16:09:55.645Z,7.65
2018-12-12T16:12:23.649Z,8.25
2018-12-12T16:14:51.660Z,7.20
2018-12-12T16:17:19.679Z,7.37
2018-12-12T16:19:47.697Z,7.72
2018-12-12T16:22:17.298Z,7.70
2018-12-12T16:24:45.364Z,7.53
2018-12-12T16:27:13.156Z,7.40
2018-12-12T16:29:41.188Z,8.02
2018-12-12T16:32:09.200Z,7.25
2018-12-12T16:34:36.926Z,7.07
2018-12-12T16:37:04.955Z,7.28
2018-12-12T16:39:32.967Z,7.97
2018-12-12T16:42:00.923Z,7.55
2018-12-12T16:44:29.240Z,8.37
2018-12-12T16:46:57.276Z,7.93
2018-12-12T16:49:27.429Z,6.80
2018-12-12T16:51:55.428Z,6.78
2018-12-12T16:54:25.441Z,7.22
2018-12-12T16:56:53.995Z,6.72
2018-12-12T16:59:24.038Z,6.67
2018-12-12T17:01:53.647Z,6.85
2018-12-12T17:04:23.717Z,6.30
2018-12-12T17:06:53.312Z,6.73
2018-12-12T17:09:22.878Z,7.27
2018-12-12T17:11:51.064Z,6.97
2018-12-12T17:14:21.092Z,5.37
2018-12-12T17:16:49.092Z,5.83
2018-12-12T17:19:16.808Z,6.20
2018-12-12T17:21:44.871Z,6.90
2018-12-12T17:24:14.392Z,6.40
2018-12-12T17:26:43.888Z,7.20
2018-12-12T17:29:13.592Z,7.27
2018-12-12T17:31:41.618Z,5.93
2018-12-12T17:34:09.828Z,6.03
2018-12-12T17:36:39.341Z,6.67
2018-12-12T17:39:07.650Z,5.57
2018-12-12T17:41:35.660Z,6.07
2018-12-12T17:44:05.507Z,5.77
2018-12-12T17:46:33.260Z,6.43
2018-12-12T17:49:02.762Z,6.05
2018-12-12T17:51:30.800Z,6.15
2018-12-12T17:53:58.789Z,6.40
2018-12-12T17:56:26.752Z,6.45
2018-12-12T17:58:56.022Z,7.43
2018-12-12T18:01:24.044Z,5.53
2018-12-12T18:03:52.012Z,6.30
2018-12-12T18:06:21.470Z,5.80
2018-12-12T18:08:49.513Z,5.70
2018-12-12T18:11:17.494Z,9.75
2018-12-12T18:13:45.517Z,6.47
2018-12-12T18:16:13.517Z,7.47
2018-12-12T18:18:41.486Z,7.17
2018-12-12T18:21:09.786Z,6.57
2018-12-12T18:23:39.348Z,7.82
2018-12-12T18:26:07.371Z,8.03
2018-12-12T18:28:35.717Z,7.60
2018-12-12T18:31:03.749Z,7.82
2018-12-12T18:33:31.771Z,7.37
2018-12-12T18:35:59.765Z,6.57
2018-12-12T18:38:29.975Z,7.20
2018-12-12T18:40:59.540Z,8.07
2018-12-12T18:43:27.563Z,8.13
2018-12-12T18:45:56.088Z,7.50
2018-12-12T18:48:25.626Z,8.93
2018-12-12T18:50:54.000Z,8.20
2018-12-12T18:53:23.579Z,9.33
2018-12-12T18:56:03.516Z,8.33
2018-12-12T18:58:33.233Z,7.63
2018-12-12T19:01:00.930Z,7.90
2018-12-12T19:03:30.837Z,8.80
2018-12-12T19:05:58.840Z,7.93
2018-12-12T19:08:26.807Z,8.57
2018-12-12T19:10:54.871Z,9.40
2018-12-12T19:13:24.504Z,8.33
2018-12-12T19:15:54.696Z,8.73
2018-12-12T19:18:24.285Z,8.50
2018-12-12T19:20:52.320Z,9.00
2018-12-12T19:23:21.844Z,7.60
2018-12-12T19:25:49.885Z,8.27
2018-12-12T19:28:17.979Z,8.53
2018-12-12T19:30:47.587Z,8.50
2018-12-12T19:33:15.602Z,12.77
2018-12-12T19:35:43.628Z,9.57
2018-12-12T19:38:13.142Z,8.93
2018-12-12T19:40:41.329Z,9.32
2018-12-12T19:43:11.055Z,9.37
2018-12-12T19:45:39.047Z,9.30
2018-12-12T19:48:06.925Z,9.73
2018-12-12T19:50:36.482Z,10.70
2018-12-12T19:53:04.475Z,9.33
2018-12-12T19:55:34.081Z,8.53
2018-12-12T19:58:01.836Z,8.80
2018-12-12T20:00:29.870Z,9.50
2018-12-12T20:02:59.531Z,8.53
2018-12-12T20:05:27.269Z,9.47
2018-12-12T20:07:55.048Z,13.55
2018-12-12T20:10:24.906Z,10.60
2018-12-12T20:12:52.955Z,10.73
2018-12-12T20:15:38.610Z,10.53
2018-12-12T20:18:06.564Z,9.70
2018-12-12T20:20:35.844Z,8.87
2018-12-12T20:23:03.911Z,10.10
2018-12-12T20:25:33.439Z,9.93
2018-12-12T20:28:01.935Z,9.40
2018-12-12T20:30:35.371Z,9.43
2018-12-12T20:32:58.167Z,8.77
2018-12-12T20:35:26.224Z,8.63
2018-12-12T20:37:54.251Z,9.10
2018-12-12T20:40:22.768Z,9.20
2018-12-12T20:42:50.751Z,9.93
2018-12-12T20:45:20.957Z,8.37
2018-12-12T20:47:50.588Z,8.97
2018-12-12T20:50:21.412Z,9.40
2018-12-12T20:52:51.221Z,9.37
2018-12-12T20:55:19.301Z,11.07
2018-12-12T20:57:47.793Z,15.40
2018-12-12T21:00:15.831Z,14.90
2018-12-12T21:02:43.866Z,12.00
2018-12-12T21:05:11.860Z,11.27
2018-12-12T21:07:42.458Z,13.37
2018-12-12T21:10:09.404Z,11.57
2018-12-12T21:12:37.992Z,12.50
2018-12-12T21:15:08.153Z,10.63
2018-12-12T21:17:36.873Z,12.10
2018-12-12T21:20:07.173Z,10.70
2018-12-12T21:22:35.695Z,11.03
2018-12-12T21:25:03.683Z,10.87
2018-12-12T21:27:31.740Z,8.60
2018-12-12T21:29:59.811Z,10.57
2018-12-12T21:32:28.347Z,8.87
2018-12-12T21:34:57.948Z,10.23
2018-12-12T21:37:26.015Z,10.13
2018-12-12T21:39:55.754Z,10.00
2018-12-12T21:42:23.757Z,9.47
2018-12-12T21:44:51.797Z,8.97
2018-12-12T21:47:20.393Z,10.23
2018-12-12T21:49:49.647Z,9.73
2018-12-12T21:52:18.916Z,10.40
2018-12-12T21:54:46.931Z,8.70
2018-12-12T21:57:16.423Z,7.77
2018-12-12T21:59:44.649Z,8.60
2018-12-12T22:02:12.640Z,7.13
2018-12-12T22:04:42.103Z,8.83
2018-12-12T22:07:10.677Z,8.27
2018-12-12T22:09:38.656Z,9.70
2018-12-12T22:12:06.833Z,8.53
2018-12-12T22:14:36.224Z,8.97
2018-12-12T22:17:04.231Z,7.43
2018-12-12T22:19:32.264Z,10.07
2018-12-12T22:22:00.095Z,9.60
2018-12-12T22:24:28.075Z,10.33
2018-12-12T22:26:57.579Z,9.27
2018-12-12T22:29:26.863Z,9.37
2018-12-12T22:31:56.409Z,7.90
2018-12-12T22:34:24.421Z,9.40
2018-12-12T22:36:54.283Z,9.50
2018-12-12T22:39:23.898Z,8.73
2018-12-12T22:41:51.929Z,9.60
2018-12-12T22:44:21.671Z,9.53
2018-12-12T22:46:51.184Z,9.00
2018-12-12T22:49:19.203Z,10.07
2018-12-12T22:51:47.201Z,9.07
2018-12-12T22:54:15.208Z,9.63
2018-12-12T22:56:43.205Z,9.87
2018-12-12T22:59:11.198Z,10.23
2018-12-12T23:01:38.964Z,9.67
2018-12-12T23:04:08.477Z,9.27
2018-12-12T23:06:36.491Z,8.40
2018-12-12T23:09:04.319Z,7.87
2018-12-12T23:11:32.277Z,9.13
2018-12-12T23:14:00.315Z,9.33
2018-12-12T23:16:28.353Z,8.63
2018-12-12T23:18:57.102Z,14.85
2018-12-12T23:21:26.967Z,13.50
2018-12-12T23:23:54.894Z,11.50
2018-12-12T23:26:22.857Z,9.17
2018-12-12T23:28:52.408Z,8.10
2018-12-12T23:31:20.897Z,9.83
2018-12-12T23:33:50.506Z,8.07
2018-12-12T23:36:18.942Z,8.03
2018-12-12T23:38:46.997Z,10.50
2018-12-12T23:41:14.464Z,10.07
2018-12-12T23:43:42.957Z,10.13
2018-12-12T23:46:10.735Z,10.40
2018-12-12T23:48:38.879Z,10.47
2018-12-12T23:51:06.912Z,10.37
2018-12-12T23:53:35.071Z,9.03
2018-12-12T23:56:03.069Z,8.97
2018-12-12T23:58:31.072Z,10.07
